sensor_id;sensor_type;location;lat;lon;timestamp;P1;durP1;ratioP1;P2;durP2;ratioP2
16792;SDS011;8513;42.662;23.350;2022-12-07T00:00:29;33.27;;;23.87;;
16792;SDS011;8513;42.662;23.350;2022-12-07T00:02:55;32.30;;;23.43;;
16792;SDS011;8513;42.662;23.350;2022-12-07T00:05:20;33.57;;;24.13;;
16792;SDS011;8513;42.662;23.350;2022-12-07T00:07:46;29.57;;;21.67;;
16792;SDS011;8513;42.662;23.350;2022-12-07T00:10:11;28.77;;;21.80;;
16792;SDS011;8513;42.662;23.350;2022-12-07T00:12:36;25.67;;;18.77;;
16792;SDS011;8513;42.662;23.350;2022-12-07T00:15:02;27.50;;;17.93;;
16792;SDS011;8513;42.662;23.350;2022-12-07T00:17:27;27.43;;;18.67;;
16792;SDS011;8513;42.662;23.350;2022-12-07T00:19:53;27.13;;;18.53;;
16792;SDS011;8513;42.662;23.350;2022-12-07T00:22:18;24.37;;;18.17;;
16792;SDS011;8513;42.662;23.350;2022-12-07T00:24:44;24.87;;;17.97;;
16792;SDS011;8513;42.662;23.350;2022-12-07T00:27:09;28.33;;;18.00;;
16792;SDS011;8513;42.662;23.350;2022-12-07T00:29:34;27.67;;;19.40;;
16792;SDS011;8513;42.662;23.350;2022-12-07T00:32:02;28.57;;;19.97;;
16792;SDS011;8513;42.662;23.350;2022-12-07T00:34:28;25.47;;;18.40;;
16792;SDS011;8513;42.662;23.350;2022-12-07T00:36:53;27.97;;;18.90;;
16792;SDS011;8513;42.662;23.350;2022-12-07T00:39:19;24.00;;;19.40;;
16792;SDS011;8513;42.662;23.350;2022-12-07T00:41:44;29.77;;;21.73;;
16792;SDS011;8513;42.662;23.350;2022-12-07T00:44:09;30.50;;;22.67;;
16792;SDS011;8513;42.662;23.350;2022-12-07T00:46:35;30.43;;;22.27;;
16792;SDS011;8513;42.662;23.350;2022-12-07T00:49:00;35.20;;;22.33;;
16792;SDS011;8513;42.662;23.350;2022-12-07T00:51:26;29.03;;;23.23;;
16792;SDS011;8513;42.662;23.350;2022-12-07T00:53:51;31.30;;;22.57;;
16792;SDS011;8513;42.662;23.350;2022-12-07T00:56:19;34.60;;;25.37;;
16792;SDS011;8513;42.662;23.350;2022-12-07T00:58:51;31.17;;;25.37;;
16792;SDS011;8513;42.662;23.350;2022-12-07T01:01:17;32.63;;;24.93;;
16792;SDS011;8513;42.662;23.350;2022-12-07T01:03:43;33.23;;;24.60;;
16792;SDS011;8513;42.662;23.350;2022-12-07T01:06:08;35.40;;;24.47;;
16792;SDS011;8513;42.662;23.350;2022-12-07T01:08:33;31.27;;;22.43;;
16792;SDS011;8513;42.662;23.350;2022-12-07T01:11:00;31.03;;;22.80;;
16792;SDS011;8513;42.662;23.350;2022-12-07T01:13:30;30.83;;;24.90;;
16792;SDS011;8513;42.662;23.350;2022-12-07T01:15:58;32.50;;;24.00;;
16792;SDS011;8513;42.662;23.350;2022-12-07T01:18:25;33.10;;;23.97;;
16792;SDS011;8513;42.662;23.350;2022-12-07T01:23:48;30.03;;;24.30;;
16792;SDS011;8513;42.662;23.350;2022-12-07T01:26:15;33.70;;;25.43;;
16792;SDS011;8513;42.662;23.350;2022-12-07T01:28:43;34.10;;;25.30;;
16792;SDS011;8513;42.662;23.350;2022-12-07T01:31:11;33.40;;;25.90;;
16792;SDS011;8513;42.662;23.350;2022-12-07T01:33:41;34.43;;;25.03;;
16792;SDS011;8513;42.662;23.350;2022-12-07T01:36:15;33.97;;;24.97;;
16792;SDS011;8513;42.662;23.350;2022-12-07T01:38:41;36.03;;;25.47;;
16792;SDS011;8513;42.662;23.350;2022-12-07T01:41:08;30.67;;;24.87;;
16792;SDS011;8513;42.662;23.350;2022-12-07T01:43:34;31.27;;;24.50;;
16792;SDS011;8513;42.662;23.350;2022-12-07T01:46:00;32.33;;;24.77;;
16792;SDS011;8513;42.662;23.350;2022-12-07T01:48:39;32.90;;;24.37;;
16792;SDS011;8513;42.662;23.350;2022-12-07T01:51:10;30.50;;;24.50;;
16792;SDS011;8513;42.662;23.350;2022-12-07T01:53:40;36.53;;;24.50;;
16792;SDS011;8513;42.662;23.350;2022-12-07T01:56:10;35.53;;;25.17;;
16792;SDS011;8513;42.662;23.350;2022-12-07T01:58:41;33.17;;;22.83;;
16792;SDS011;8513;42.662;23.350;2022-12-07T02:01:08;30.03;;;22.83;;
16792;SDS011;8513;42.662;23.350;2022-12-07T02:03:38;30.10;;;22.33;;
16792;SDS011;8513;42.662;23.350;2022-12-07T02:06:06;29.97;;;21.57;;
16792;SDS011;8513;42.662;23.350;2022-12-07T02:08:35;35.70;;;23.70;;
16792;SDS011;8513;42.662;23.350;2022-12-07T02:11:01;32.80;;;23.10;;
16792;SDS011;8513;42.662;23.350;2022-12-07T02:13:29;37.17;;;23.73;;
16792;SDS011;8513;42.662;23.350;2022-12-07T02:21:16;35.30;;;24.17;;
16792;SDS011;8513;42.662;23.350;2022-12-07T02:29:34;37.73;;;27.03;;
16792;SDS011;8513;42.662;23.350;2022-12-07T02:32:15;36.23;;;26.83;;
16792;SDS011;8513;42.662;23.350;2022-12-07T02:34:50;36.03;;;26.37;;
16792;SDS011;8513;42.662;23.350;2022-12-07T02:40:09;36.07;;;26.07;;
16792;SDS011;8513;42.662;23.350;2022-12-07T02:42:46;28.80;;;23.40;;
16792;SDS011;8513;42.662;23.350;2022-12-07T02:45:17;39.77;;;26.17;;
16792;SDS011;8513;42.662;23.350;2022-12-07T02:47:47;39.77;;;27.90;;
16792;SDS011;8513;42.662;23.350;2022-12-07T02:50:17;38.13;;;27.30;;
16792;SDS011;8513;42.662;23.350;2022-12-07T02:52:45;35.87;;;28.27;;
16792;SDS011;8513;42.662;23.350;2022-12-07T02:55:10;38.07;;;29.20;;
16792;SDS011;8513;42.662;23.350;2022-12-07T02:57:44;38.63;;;27.83;;
16792;SDS011;8513;42.662;23.350;2022-12-07T03:00:15;41.67;;;28.83;;
16792;SDS011;8513;42.662;23.350;2022-12-07T03:03:06;38.23;;;28.37;;
16792;SDS011;8513;42.662;23.350;2022-12-07T03:05:45;39.73;;;27.43;;
16792;SDS011;8513;42.662;23.350;2022-12-07T03:14:19;38.83;;;27.20;;
16792;SDS011;8513;42.662;23.350;2022-12-07T03:16:58;40.07;;;27.60;;
16792;SDS011;8513;42.662;23.350;2022-12-07T03:19:31;37.60;;;27.80;;
16792;SDS011;8513;42.662;23.350;2022-12-07T03:22:02;41.47;;;27.30;;
16792;SDS011;8513;42.662;23.350;2022-12-07T03:24:37;40.40;;;28.23;;
16792;SDS011;8513;42.662;23.350;2022-12-07T03:27:09;39.13;;;27.77;;
16792;SDS011;8513;42.662;23.350;2022-12-07T03:29:41;41.50;;;27.93;;
16792;SDS011;8513;42.662;23.350;2022-12-07T03:32:19;38.77;;;27.53;;
16792;SDS011;8513;42.662;23.350;2022-12-07T03:34:59;36.80;;;27.93;;
16792;SDS011;8513;42.662;23.350;2022-12-07T03:37:41;40.40;;;29.13;;
16792;SDS011;8513;42.662;23.350;2022-12-07T03:42:59;40.33;;;30.07;;
16792;SDS011;8513;42.662;23.350;2022-12-07T03:45:53;40.03;;;30.23;;
16792;SDS011;8513;42.662;23.350;2022-12-07T03:48:37;37.50;;;28.27;;
16792;SDS011;8513;42.662;23.350;2022-12-07T03:53:52;36.87;;;28.13;;
16792;SDS011;8513;42.662;23.350;2022-12-07T03:56:24;35.30;;;28.03;;
16792;SDS011;8513;42.662;23.350;2022-12-07T03:58:52;39.90;;;28.17;;
16792;SDS011;8513;42.662;23.350;2022-12-07T04:01:19;38.83;;;28.47;;
16792;SDS011;8513;42.662;23.350;2022-12-07T04:03:44;37.37;;;28.77;;
16792;SDS011;8513;42.662;23.350;2022-12-07T04:06:10;34.13;;;28.70;;
16792;SDS011;8513;42.662;23.350;2022-12-07T04:08:36;39.97;;;29.37;;
16792;SDS011;8513;42.662;23.350;2022-12-07T04:11:01;35.33;;;27.50;;
16792;SDS011;8513;42.662;23.350;2022-12-07T04:13:27;37.70;;;28.37;;
16792;SDS011;8513;42.662;23.350;2022-12-07T04:15:53;35.73;;;27.87;;
16792;SDS011;8513;42.662;23.350;2022-12-07T04:18:18;35.87;;;29.30;;
16792;SDS011;8513;42.662;23.350;2022-12-07T04:20:45;36.37;;;27.60;;
16792;SDS011;8513;42.662;23.350;2022-12-07T04:23:11;39.20;;;27.53;;
16792;SDS011;8513;42.662;23.350;2022-12-07T04:25:36;39.50;;;29.87;;
16792;SDS011;8513;42.662;23.350;2022-12-07T04:28:02;37.00;;;28.57;;
16792;SDS011;8513;42.662;23.350;2022-12-07T04:30:27;39.33;;;29.60;;
16792;SDS011;8513;42.662;23.350;2022-12-07T04:32:53;33.57;;;27.73;;
16792;SDS011;8513;42.662;23.350;2022-12-07T04:35:18;38.73;;;28.30;;
16792;SDS011;8513;42.662;23.350;2022-12-07T04:37:43;38.53;;;28.63;;
16792;SDS011;8513;42.662;23.350;2022-12-07T04:40:09;37.07;;;28.07;;
16792;SDS011;8513;42.662;23.350;2022-12-07T04:42:36;38.67;;;28.20;;
16792;SDS011;8513;42.662;23.350;2022-12-07T04:45:02;39.90;;;27.33;;
16792;SDS011;8513;42.662;23.350;2022-12-07T04:47:28;37.10;;;28.63;;
16792;SDS011;8513;42.662;23.350;2022-12-07T04:49:53;32.77;;;26.97;;
16792;SDS011;8513;42.662;23.350;2022-12-07T04:52:19;39.10;;;28.03;;
16792;SDS011;8513;42.662;23.350;2022-12-07T04:54:44;38.07;;;27.83;;
16792;SDS011;8513;42.662;23.350;2022-12-07T04:57:10;36.73;;;27.67;;
16792;SDS011;8513;42.662;23.350;2022-12-07T04:59:35;37.77;;;26.73;;
16792;SDS011;8513;42.662;23.350;2022-12-07T05:02:00;38.07;;;28.70;;
16792;SDS011;8513;42.662;23.350;2022-12-07T05:04:26;41.27;;;28.10;;
16792;SDS011;8513;42.662;23.350;2022-12-07T05:06:51;40.93;;;27.33;;
16792;SDS011;8513;42.662;23.350;2022-12-07T05:09:17;41.10;;;30.17;;
16792;SDS011;8513;42.662;23.350;2022-12-07T05:11:42;42.93;;;30.33;;
16792;SDS011;8513;42.662;23.350;2022-12-07T05:16:44;38.20;;;29.47;;
16792;SDS011;8513;42.662;23.350;2022-12-07T05:19:12;34.30;;;27.53;;
16792;SDS011;8513;42.662;23.350;2022-12-07T05:21:37;35.40;;;27.70;;
16792;SDS011;8513;42.662;23.350;2022-12-07T05:24:04;36.90;;;27.90;;
16792;SDS011;8513;42.662;23.350;2022-12-07T05:26:30;39.10;;;28.47;;
16792;SDS011;8513;42.662;23.350;2022-12-07T05:28:56;32.97;;;27.20;;
16792;SDS011;8513;42.662;23.350;2022-12-07T05:31:22;39.47;;;28.23;;
16792;SDS011;8513;42.662;23.350;2022-12-07T05:33:49;41.53;;;27.93;;
16792;SDS011;8513;42.662;23.350;2022-12-07T05:36:14;38.70;;;28.00;;
16792;SDS011;8513;42.662;23.350;2022-12-07T05:38:40;40.13;;;26.60;;
16792;SDS011;8513;42.662;23.350;2022-12-07T05:41:06;37.23;;;27.73;;
16792;SDS011;8513;42.662;23.350;2022-12-07T05:43:53;39.23;;;28.30;;
16792;SDS011;8513;42.662;23.350;2022-12-07T05:46:18;40.90;;;27.83;;
16792;SDS011;8513;42.662;23.350;2022-12-07T05:48:43;34.93;;;26.03;;
16792;SDS011;8513;42.662;23.350;2022-12-07T05:51:09;37.43;;;27.40;;
16792;SDS011;8513;42.662;23.350;2022-12-07T05:53:34;33.90;;;27.17;;
16792;SDS011;8513;42.662;23.350;2022-12-07T05:56:00;45.57;;;31.90;;
16792;SDS011;8513;42.662;23.350;2022-12-07T05:58:25;46.17;;;29.73;;
16792;SDS011;8513;42.662;23.350;2022-12-07T06:01:09;37.57;;;27.43;;
16792;SDS011;8513;42.662;23.350;2022-12-07T06:03:35;40.70;;;26.53;;
16792;SDS011;8513;42.662;23.350;2022-12-07T06:06:00;33.17;;;25.00;;
16792;SDS011;8513;42.662;23.350;2022-12-07T06:08:25;38.77;;;26.20;;
16792;SDS011;8513;42.662;23.350;2022-12-07T06:10:51;42.50;;;25.90;;
16792;SDS011;8513;42.662;23.350;2022-12-07T06:13:36;40.17;;;27.20;;
16792;SDS011;8513;42.662;23.350;2022-12-07T06:16:02;43.17;;;27.33;;
16792;SDS011;8513;42.662;23.350;2022-12-07T06:18:27;41.90;;;28.07;;
16792;SDS011;8513;42.662;23.350;2022-12-07T06:20:52;42.27;;;27.27;;
16792;SDS011;8513;42.662;23.350;2022-12-07T06:23:18;39.57;;;28.03;;
16792;SDS011;8513;42.662;23.350;2022-12-07T06:25:45;44.97;;;27.43;;
16792;SDS011;8513;42.662;23.350;2022-12-07T06:28:11;42.33;;;28.13;;
16792;SDS011;8513;42.662;23.350;2022-12-07T06:30:36;35.87;;;26.87;;
16792;SDS011;8513;42.662;23.350;2022-12-07T06:33:01;40.73;;;24.80;;
16792;SDS011;8513;42.662;23.350;2022-12-07T06:35:27;40.83;;;25.30;;
16792;SDS011;8513;42.662;23.350;2022-12-07T06:37:52;37.97;;;24.67;;
16792;SDS011;8513;42.662;23.350;2022-12-07T06:40:18;40.27;;;24.90;;
16792;SDS011;8513;42.662;23.350;2022-12-07T06:42:43;40.07;;;25.90;;
16792;SDS011;8513;42.662;23.350;2022-12-07T06:45:09;37.07;;;25.03;;
16792;SDS011;8513;42.662;23.350;2022-12-07T06:47:34;37.00;;;24.87;;
16792;SDS011;8513;42.662;23.350;2022-12-07T06:50:00;37.27;;;25.73;;
16792;SDS011;8513;42.662;23.350;2022-12-07T06:52:25;35.73;;;25.47;;
16792;SDS011;8513;42.662;23.350;2022-12-07T06:54:51;36.93;;;24.50;;
16792;SDS011;8513;42.662;23.350;2022-12-07T06:57:16;40.33;;;26.00;;
16792;SDS011;8513;42.662;23.350;2022-12-07T06:59:41;38.10;;;24.70;;
16792;SDS011;8513;42.662;23.350;2022-12-07T07:02:08;31.83;;;22.43;;
16792;SDS011;8513;42.662;23.350;2022-12-07T07:04:34;34.30;;;25.17;;
16792;SDS011;8513;42.662;23.350;2022-12-07T07:06:59;39.37;;;24.37;;
16792;SDS011;8513;42.662;23.350;2022-12-07T07:09:25;37.23;;;24.33;;
16792;SDS011;8513;42.662;23.350;2022-12-07T07:11:51;37.73;;;23.23;;
16792;SDS011;8513;42.662;23.350;2022-12-07T07:14:16;33.87;;;21.93;;
16792;SDS011;8513;42.662;23.350;2022-12-07T07:16:44;36.77;;;22.13;;
16792;SDS011;8513;42.662;23.350;2022-12-07T07:19:09;35.43;;;24.23;;
16792;SDS011;8513;42.662;23.350;2022-12-07T07:21:36;37.47;;;23.93;;
16792;SDS011;8513;42.662;23.350;2022-12-07T07:24:01;39.73;;;25.07;;
16792;SDS011;8513;42.662;23.350;2022-12-07T07:26:27;44.67;;;26.60;;
16792;SDS011;8513;42.662;23.350;2022-12-07T07:28:52;53.33;;;28.67;;
16792;SDS011;8513;42.662;23.350;2022-12-07T07:31:18;56.00;;;31.80;;
16792;SDS011;8513;42.662;23.350;2022-12-07T07:33:44;44.43;;;29.73;;
16792;SDS011;8513;42.662;23.350;2022-12-07T07:36:11;40.57;;;27.30;;
16792;SDS011;8513;42.662;23.350;2022-12-07T07:38:36;36.90;;;24.30;;
16792;SDS011;8513;42.662;23.350;2022-12-07T07:41:01;40.00;;;27.00;;
16792;SDS011;8513;42.662;23.350;2022-12-07T07:43:27;42.53;;;26.33;;
16792;SDS011;8513;42.662;23.350;2022-12-07T07:45:52;42.37;;;26.83;;
16792;SDS011;8513;42.662;23.350;2022-12-07T07:48:18;40.20;;;26.00;;
16792;SDS011;8513;42.662;23.350;2022-12-07T07:50:43;35.87;;;25.90;;
16792;SDS011;8513;42.662;23.350;2022-12-07T07:53:09;42.27;;;26.77;;
16792;SDS011;8513;42.662;23.350;2022-12-07T07:55:34;39.80;;;24.47;;
16792;SDS011;8513;42.662;23.350;2022-12-07T07:58:00;36.27;;;25.00;;
16792;SDS011;8513;42.662;23.350;2022-12-07T08:00:25;36.83;;;24.60;;
16792;SDS011;8513;42.662;23.350;2022-12-07T08:02:51;35.80;;;24.80;;
16792;SDS011;8513;42.662;23.350;2022-12-07T08:05:16;37.00;;;22.93;;
16792;SDS011;8513;42.662;23.350;2022-12-07T08:07:42;36.00;;;22.70;;
16792;SDS011;8513;42.662;23.350;2022-12-07T08:10:09;36.50;;;23.33;;
16792;SDS011;8513;42.662;23.350;2022-12-07T08:12:40;29.27;;;21.33;;
16792;SDS011;8513;42.662;23.350;2022-12-07T08:15:28;28.77;;;21.50;;
16792;SDS011;8513;42.662;23.350;2022-12-07T08:17:55;31.33;;;22.27;;
16792;SDS011;8513;42.662;23.350;2022-12-07T08:20:20;33.73;;;22.93;;
16792;SDS011;8513;42.662;23.350;2022-12-07T08:22:46;34.03;;;22.47;;
16792;SDS011;8513;42.662;23.350;2022-12-07T08:25:12;33.77;;;23.30;;
16792;SDS011;8513;42.662;23.350;2022-12-07T08:27:37;36.63;;;24.33;;
16792;SDS011;8513;42.662;23.350;2022-12-07T08:30:03;39.13;;;26.03;;
16792;SDS011;8513;42.662;23.350;2022-12-07T08:32:29;38.83;;;26.17;;
16792;SDS011;8513;42.662;23.350;2022-12-07T08:34:54;44.77;;;24.47;;
16792;SDS011;8513;42.662;23.350;2022-12-07T08:37:20;38.37;;;24.37;;
16792;SDS011;8513;42.662;23.350;2022-12-07T08:39:45;37.57;;;25.50;;
16792;SDS011;8513;42.662;23.350;2022-12-07T08:42:11;34.43;;;24.27;;
16792;SDS011;8513;42.662;23.350;2022-12-07T08:44:36;35.30;;;24.33;;
16792;SDS011;8513;42.662;23.350;2022-12-07T08:47:02;37.17;;;24.13;;
16792;SDS011;8513;42.662;23.350;2022-12-07T08:49:39;35.17;;;24.53;;
16792;SDS011;8513;42.662;23.350;2022-12-07T08:52:07;35.07;;;22.97;;
16792;SDS011;8513;42.662;23.350;2022-12-07T08:54:33;35.73;;;24.37;;
16792;SDS011;8513;42.662;23.350;2022-12-07T08:57:01;34.37;;;24.27;;
16792;SDS011;8513;42.662;23.350;2022-12-07T08:59:28;34.90;;;23.67;;
16792;SDS011;8513;42.662;23.350;2022-12-07T09:01:54;38.37;;;24.53;;
16792;SDS011;8513;42.662;23.350;2022-12-07T09:04:19;38.23;;;24.67;;
16792;SDS011;8513;42.662;23.350;2022-12-07T09:06:45;37.53;;;24.60;;
16792;SDS011;8513;42.662;23.350;2022-12-07T09:09:11;37.50;;;25.67;;
16792;SDS011;8513;42.662;23.350;2022-12-07T09:11:38;41.70;;;26.10;;
16792;SDS011;8513;42.662;23.350;2022-12-07T09:14:04;39.37;;;26.20;;
16792;SDS011;8513;42.662;23.350;2022-12-07T09:16:29;42.07;;;26.77;;
16792;SDS011;8513;42.662;23.350;2022-12-07T09:18:55;40.63;;;26.90;;
16792;SDS011;8513;42.662;23.350;2022-12-07T09:21:20;39.67;;;28.00;;
16792;SDS011;8513;42.662;23.350;2022-12-07T09:23:46;36.33;;;27.27;;
16792;SDS011;8513;42.662;23.350;2022-12-07T09:26:11;38.17;;;27.57;;
16792;SDS011;8513;42.662;23.350;2022-12-07T09:28:37;35.20;;;25.87;;
16792;SDS011;8513;42.662;23.350;2022-12-07T09:31:03;42.20;;;28.87;;
16792;SDS011;8513;42.662;23.350;2022-12-07T09:33:29;39.43;;;27.17;;
16792;SDS011;8513;42.662;23.350;2022-12-07T09:35:54;38.80;;;26.77;;
16792;SDS011;8513;42.662;23.350;2022-12-07T09:38:20;46.97;;;27.47;;
16792;SDS011;8513;42.662;23.350;2022-12-07T09:40:46;37.93;;;28.50;;
16792;SDS011;8513;42.662;23.350;2022-12-07T09:43:17;40.07;;;27.60;;
16792;SDS011;8513;42.662;23.350;2022-12-07T09:45:44;44.07;;;29.13;;
16792;SDS011;8513;42.662;23.350;2022-12-07T09:48:22;40.37;;;27.33;;
16792;SDS011;8513;42.662;23.350;2022-12-07T09:50:54;35.77;;;26.53;;
16792;SDS011;8513;42.662;23.350;2022-12-07T09:53:26;38.63;;;26.47;;
16792;SDS011;8513;42.662;23.350;2022-12-07T09:55:55;38.57;;;26.70;;
16792;SDS011;8513;42.662;23.350;2022-12-07T09:58:22;38.13;;;26.30;;
16792;SDS011;8513;42.662;23.350;2022-12-07T10:00:57;40.10;;;26.63;;
16792;SDS011;8513;42.662;23.350;2022-12-07T10:03:45;35.77;;;26.17;;
16792;SDS011;8513;42.662;23.350;2022-12-07T10:06:15;39.13;;;26.43;;
16792;SDS011;8513;42.662;23.350;2022-12-07T10:08:40;36.57;;;26.03;;
16792;SDS011;8513;42.662;23.350;2022-12-07T10:11:09;36.87;;;26.73;;
16792;SDS011;8513;42.662;23.350;2022-12-07T10:16:06;38.13;;;25.73;;
16792;SDS011;8513;42.662;23.350;2022-12-07T10:18:49;35.40;;;25.43;;
16792;SDS011;8513;42.662;23.350;2022-12-07T10:21:22;32.20;;;25.03;;
16792;SDS011;8513;42.662;23.350;2022-12-07T10:26:30;36.93;;;26.87;;
16792;SDS011;8513;42.662;23.350;2022-12-07T10:28:58;39.93;;;26.50;;
16792;SDS011;8513;42.662;23.350;2022-12-07T10:31:25;36.40;;;25.73;;
16792;SDS011;8513;42.662;23.350;2022-12-07T10:36:37;34.37;;;24.97;;
16792;SDS011;8513;42.662;23.350;2022-12-07T10:41:29;40.80;;;25.17;;
16792;SDS011;8513;42.662;23.350;2022-12-07T10:43:56;35.47;;;24.73;;
16792;SDS011;8513;42.662;23.350;2022-12-07T10:52:29;30.13;;;23.17;;
16792;SDS011;8513;42.662;23.350;2022-12-07T11:00:19;32.33;;;21.23;;
16792;SDS011;8513;42.662;23.350;2022-12-07T11:08:08;33.77;;;23.07;;
16792;SDS011;8513;42.662;23.350;2022-12-07T11:18:24;35.10;;;23.93;;
16792;SDS011;8513;42.662;23.350;2022-12-07T11:26:06;28.60;;;21.10;;
16792;SDS011;8513;42.662;23.350;2022-12-07T11:28:44;41.43;;;21.97;;
16792;SDS011;8513;42.662;23.350;2022-12-07T11:36:46;30.73;;;20.73;;
16792;SDS011;8513;42.662;23.350;2022-12-07T11:41:44;26.43;;;18.33;;
16792;SDS011;8513;42.662;23.350;2022-12-07T11:47:38;26.87;;;17.20;;
16792;SDS011;8513;42.662;23.350;2022-12-07T11:52:51;25.47;;;17.70;;
16792;SDS011;8513;42.662;23.350;2022-12-07T11:58:21;30.80;;;17.67;;
16792;SDS011;8513;42.662;23.350;2022-12-07T12:03:52;22.67;;;17.23;;
16792;SDS011;8513;42.662;23.350;2022-12-07T12:06:20;27.53;;;18.63;;
16792;SDS011;8513;42.662;23.350;2022-12-07T12:08:49;24.83;;;19.33;;
16792;SDS011;8513;42.662;23.350;2022-12-07T12:20:13;36.10;;;22.43;;
16792;SDS011;8513;42.662;23.350;2022-12-07T12:22:41;27.73;;;18.10;;
16792;SDS011;8513;42.662;23.350;2022-12-07T12:25:20;25.83;;;18.60;;
16792;SDS011;8513;42.662;23.350;2022-12-07T12:27:49;28.07;;;18.40;;
16792;SDS011;8513;42.662;23.350;2022-12-07T12:30:36;22.43;;;17.33;;
16792;SDS011;8513;42.662;23.350;2022-12-07T12:33:06;20.50;;;15.37;;
16792;SDS011;8513;42.662;23.350;2022-12-07T12:35:40;21.93;;;15.43;;
16792;SDS011;8513;42.662;23.350;2022-12-07T12:38:25;22.90;;;15.90;;
16792;SDS011;8513;42.662;23.350;2022-12-07T12:40:57;24.50;;;15.17;;
16792;SDS011;8513;42.662;23.350;2022-12-07T12:43:42;21.57;;;14.93;;
16792;SDS011;8513;42.662;23.350;2022-12-07T12:49:15;18.53;;;13.67;;
16792;SDS011;8513;42.662;23.350;2022-12-07T12:51:59;23.07;;;14.73;;
16792;SDS011;8513;42.662;23.350;2022-12-07T12:54:32;22.30;;;14.97;;
16792;SDS011;8513;42.662;23.350;2022-12-07T13:10:21;22.73;;;14.17;;
16792;SDS011;8513;42.662;23.350;2022-12-07T13:18:14;19.38;;;13.00;;
16792;SDS011;8513;42.662;23.350;2022-12-07T13:20:47;16.83;;;13.70;;
16792;SDS011;8513;42.662;23.350;2022-12-07T13:23:19;16.60;;;13.95;;
16792;SDS011;8513;42.662;23.350;2022-12-07T13:25:57;15.85;;;13.35;;
16792;SDS011;8513;42.662;23.350;2022-12-07T13:28:25;16.27;;;14.10;;
16792;SDS011;8513;42.662;23.350;2022-12-07T13:31:18;16.63;;;13.57;;
16792;SDS011;8513;42.662;23.350;2022-12-07T13:33:58;21.13;;;13.13;;
16792;SDS011;8513;42.662;23.350;2022-12-07T13:36:38;22.33;;;13.03;;
16792;SDS011;8513;42.662;23.350;2022-12-07T13:41:59;17.70;;;13.23;;
16792;SDS011;8513;42.662;23.350;2022-12-07T13:44:39;17.63;;;13.33;;
16792;SDS011;8513;42.662;23.350;2022-12-07T13:47:12;17.37;;;13.90;;
16792;SDS011;8513;42.662;23.350;2022-12-07T13:49:49;18.20;;;12.90;;
16792;SDS011;8513;42.662;23.350;2022-12-07T13:54:58;18.20;;;12.93;;
16792;SDS011;8513;42.662;23.350;2022-12-07T13:57:38;18.73;;;13.27;;
16792;SDS011;8513;42.662;23.350;2022-12-07T14:00:05;25.30;;;14.60;;
16792;SDS011;8513;42.662;23.350;2022-12-07T14:02:54;18.87;;;14.50;;
16792;SDS011;8513;42.662;23.350;2022-12-07T14:05:23;17.93;;;13.00;;
16792;SDS011;8513;42.662;23.350;2022-12-07T14:07:58;20.70;;;15.07;;
16792;SDS011;8513;42.662;23.350;2022-12-07T14:10:36;20.77;;;14.60;;
16792;SDS011;8513;42.662;23.350;2022-12-07T14:13:03;20.20;;;13.80;;
16792;SDS011;8513;42.662;23.350;2022-12-07T14:15:49;21.53;;;14.00;;
16792;SDS011;8513;42.662;23.350;2022-12-07T14:18:29;19.33;;;14.20;;
16792;SDS011;8513;42.662;23.350;2022-12-07T14:23:29;22.00;;;13.87;;
16792;SDS011;8513;42.662;23.350;2022-12-07T14:26:04;21.73;;;14.50;;
16792;SDS011;8513;42.662;23.350;2022-12-07T14:28:40;19.80;;;13.77;;
16792;SDS011;8513;42.662;23.350;2022-12-07T14:31:10;20.80;;;13.83;;
16792;SDS011;8513;42.662;23.350;2022-12-07T14:33:36;26.00;;;14.30;;
16792;SDS011;8513;42.662;23.350;2022-12-07T14:36:02;21.67;;;13.83;;
16792;SDS011;8513;42.662;23.350;2022-12-07T14:38:27;25.00;;;14.20;;
16792;SDS011;8513;42.662;23.350;2022-12-07T14:40:53;22.80;;;14.47;;
16792;SDS011;8513;42.662;23.350;2022-12-07T14:43:39;23.83;;;14.63;;
16792;SDS011;8513;42.662;23.350;2022-12-07T14:46:05;27.47;;;16.00;;
16792;SDS011;8513;42.662;23.350;2022-12-07T14:48:30;37.00;;;17.20;;
16792;SDS011;8513;42.662;23.350;2022-12-07T14:50:55;29.03;;;15.37;;
16792;SDS011;8513;42.662;23.350;2022-12-07T14:53:22;28.43;;;15.97;;
16792;SDS011;8513;42.662;23.350;2022-12-07T14:55:54;22.77;;;15.37;;
16792;SDS011;8513;42.662;23.350;2022-12-07T14:58:20;22.63;;;14.07;;
16792;SDS011;8513;42.662;23.350;2022-12-07T15:00:45;36.13;;;17.50;;
16792;SDS011;8513;42.662;23.350;2022-12-07T15:03:12;27.80;;;17.97;;
16792;SDS011;8513;42.662;23.350;2022-12-07T15:05:38;28.97;;;16.73;;
16792;SDS011;8513;42.662;23.350;2022-12-07T15:08:04;33.37;;;17.33;;
16792;SDS011;8513;42.662;23.350;2022-12-07T15:10:32;35.63;;;17.03;;
16792;SDS011;8513;42.662;23.350;2022-12-07T15:12:59;44.20;;;17.10;;
16792;SDS011;8513;42.662;23.350;2022-12-07T15:15:49;47.40;;;30.27;;
16792;SDS011;8513;42.662;23.350;2022-12-07T15:18:15;42.97;;;23.07;;
16792;SDS011;8513;42.662;23.350;2022-12-07T15:20:41;47.37;;;19.17;;
16792;SDS011;8513;42.662;23.350;2022-12-07T15:23:07;38.17;;;19.00;;
16792;SDS011;8513;42.662;23.350;2022-12-07T15:25:32;35.57;;;19.23;;
16792;SDS011;8513;42.662;23.350;2022-12-07T15:27:58;41.27;;;21.00;;
16792;SDS011;8513;42.662;23.350;2022-12-07T15:30:24;44.93;;;20.90;;
16792;SDS011;8513;42.662;23.350;2022-12-07T15:32:50;44.80;;;21.13;;
16792;SDS011;8513;42.662;23.350;2022-12-07T15:35:15;41.37;;;18.50;;
16792;SDS011;8513;42.662;23.350;2022-12-07T15:37:41;38.00;;;19.10;;
16792;SDS011;8513;42.662;23.350;2022-12-07T15:40:06;48.37;;;20.90;;
16792;SDS011;8513;42.662;23.350;2022-12-07T15:42:32;46.37;;;19.97;;
16792;SDS011;8513;42.662;23.350;2022-12-07T15:44:58;45.10;;;24.07;;
16792;SDS011;8513;42.662;23.350;2022-12-07T15:47:30;43.83;;;23.93;;
16792;SDS011;8513;42.662;23.350;2022-12-07T15:50:15;44.20;;;23.07;;
16792;SDS011;8513;42.662;23.350;2022-12-07T15:52:42;40.37;;;22.17;;
16792;SDS011;8513;42.662;23.350;2022-12-07T15:55:08;32.33;;;19.23;;
16792;SDS011;8513;42.662;23.350;2022-12-07T15:57:36;43.97;;;20.87;;
16792;SDS011;8513;42.662;23.350;2022-12-07T16:00:05;41.50;;;21.67;;
16792;SDS011;8513;42.662;23.350;2022-12-07T16:02:33;41.67;;;20.87;;
16792;SDS011;8513;42.662;23.350;2022-12-07T16:05:00;46.17;;;20.57;;
16792;SDS011;8513;42.662;23.350;2022-12-07T16:07:25;41.23;;;20.70;;
16792;SDS011;8513;42.662;23.350;2022-12-07T16:09:51;43.10;;;21.77;;
16792;SDS011;8513;42.662;23.350;2022-12-07T16:12:16;66.10;;;25.57;;
16792;SDS011;8513;42.662;23.350;2022-12-07T16:14:42;58.27;;;23.77;;
16792;SDS011;8513;42.662;23.350;2022-12-07T16:17:08;56.40;;;23.63;;
16792;SDS011;8513;42.662;23.350;2022-12-07T16:19:34;54.40;;;24.40;;
16792;SDS011;8513;42.662;23.350;2022-12-07T16:22:00;53.90;;;23.77;;
16792;SDS011;8513;42.662;23.350;2022-12-07T16:24:26;47.80;;;23.47;;
16792;SDS011;8513;42.662;23.350;2022-12-07T16:26:52;57.83;;;25.97;;
16792;SDS011;8513;42.662;23.350;2022-12-07T16:29:18;60.43;;;26.27;;
16792;SDS011;8513;42.662;23.350;2022-12-07T16:31:44;53.70;;;25.63;;
16792;SDS011;8513;42.662;23.350;2022-12-07T16:34:10;55.23;;;25.50;;
16792;SDS011;8513;42.662;23.350;2022-12-07T16:36:35;54.43;;;24.60;;
16792;SDS011;8513;42.662;23.350;2022-12-07T16:39:02;69.00;;;28.67;;